sensor_id;sensor_type;location;lat;lon;timestamp;P1;durP1;ratioP1;P2;durP2;ratioP2
15340;SDS011;7770;52.158;5.372;2022-10-28T00:01:10;24.23;;;20.30;;
15340;SDS011;7770;52.158;5.372;2022-10-28T00:03:58;21.53;;;18.70;;
15340;SDS011;7770;52.158;5.372;2022-10-28T00:06:45;25.97;;;19.87;;
15340;SDS011;7770;52.158;5.372;2022-10-28T00:09:31;25.90;;;19.87;;
15340;SDS011;7770;52.158;5.372;2022-10-28T00:12:17;27.47;;;19.67;;
15340;SDS011;7770;52.158;5.372;2022-10-28T00:15:03;27.03;;;20.57;;
15340;SDS011;7770;52.158;5.372;2022-10-28T00:17:51;22.00;;;19.17;;
15340;SDS011;7770;52.158;5.372;2022-10-28T00:20:37;22.60;;;19.73;;
15340;SDS011;7770;52.158;5.372;2022-10-28T00:23:23;22.07;;;18.97;;
15340;SDS011;7770;52.158;5.372;2022-10-28T00:26:13;25.80;;;19.20;;
15340;SDS011;7770;52.158;5.372;2022-10-28T00:29:14;24.07;;;18.60;;
15340;SDS011;7770;52.158;5.372;2022-10-28T00:32:03;24.67;;;18.80;;
15340;SDS011;7770;52.158;5.372;2022-10-28T00:34:49;24.83;;;18.60;;
15340;SDS011;7770;52.158;5.372;2022-10-28T00:37:35;27.33;;;18.63;;
15340;SDS011;7770;52.158;5.372;2022-10-28T00:40:21;25.27;;;18.87;;
15340;SDS011;7770;52.158;5.372;2022-10-28T00:43:08;22.23;;;18.47;;
15340;SDS011;7770;52.158;5.372;2022-10-28T00:45:56;23.30;;;19.13;;
15340;SDS011;7770;52.158;5.372;2022-10-28T00:48:42;23.47;;;18.63;;
15340;SDS011;7770;52.158;5.372;2022-10-28T00:51:33;20.80;;;18.47;;
15340;SDS011;7770;52.158;5.372;2022-10-28T00:54:20;19.90;;;17.77;;
15340;SDS011;7770;52.158;5.372;2022-10-28T00:57:08;23.73;;;17.50;;
15340;SDS011;7770;52.158;5.372;2022-10-28T01:00:00;20.93;;;18.57;;
15340;SDS011;7770;52.158;5.372;2022-10-28T01:02:50;23.80;;;18.73;;
15340;SDS011;7770;52.158;5.372;2022-10-28T01:05:37;21.63;;;18.67;;
15340;SDS011;7770;52.158;5.372;2022-10-28T01:08:26;24.60;;;18.13;;
15340;SDS011;7770;52.158;5.372;2022-10-28T01:14:35;23.80;;;19.43;;
15340;SDS011;7770;52.158;5.372;2022-10-28T01:34:33;24.77;;;17.63;;
15340;SDS011;7770;52.158;5.372;2022-10-28T01:37:49;22.93;;;18.60;;
15340;SDS011;7770;52.158;5.372;2022-10-28T01:40:49;25.67;;;18.60;;
15340;SDS011;7770;52.158;5.372;2022-10-28T01:47:25;24.00;;;17.93;;
15340;SDS011;7770;52.158;5.372;2022-10-28T01:50:36;25.10;;;18.00;;
15340;SDS011;7770;52.158;5.372;2022-10-28T01:53:37;22.80;;;17.23;;
15340;SDS011;7770;52.158;5.372;2022-10-28T01:56:29;26.07;;;19.20;;
15340;SDS011;7770;52.158;5.372;2022-10-28T01:59:21;23.60;;;18.10;;
15340;SDS011;7770;52.158;5.372;2022-10-28T02:02:10;24.43;;;17.93;;
15340;SDS011;7770;52.158;5.372;2022-10-28T02:05:03;23.63;;;18.53;;
15340;SDS011;7770;52.158;5.372;2022-10-28T02:08:39;26.53;;;18.37;;
15340;SDS011;7770;52.158;5.372;2022-10-28T02:12:16;24.47;;;18.70;;
15340;SDS011;7770;52.158;5.372;2022-10-28T02:15:28;27.30;;;19.73;;
15340;SDS011;7770;52.158;5.372;2022-10-28T02:21:48;20.47;;;18.27;;
15340;SDS011;7770;52.158;5.372;2022-10-28T02:25:12;26.43;;;19.03;;
15340;SDS011;7770;52.158;5.372;2022-10-28T02:28:07;20.13;;;17.93;;
15340;SDS011;7770;52.158;5.372;2022-10-28T02:30:57;26.63;;;19.07;;
15340;SDS011;7770;52.158;5.372;2022-10-28T02:33:51;26.70;;;19.13;;
15340;SDS011;7770;52.158;5.372;2022-10-28T02:36:43;19.87;;;17.67;;
15340;SDS011;7770;52.158;5.372;2022-10-28T02:39:35;22.30;;;18.23;;
15340;SDS011;7770;52.158;5.372;2022-10-28T02:42:39;22.43;;;18.07;;
15340;SDS011;7770;52.158;5.372;2022-10-28T02:45:34;23.20;;;17.80;;
15340;SDS011;7770;52.158;5.372;2022-10-28T02:48:42;22.53;;;18.70;;
15340;SDS011;7770;52.158;5.372;2022-10-28T02:51:43;26.13;;;18.17;;
15340;SDS011;7770;52.158;5.372;2022-10-28T02:54:41;21.53;;;18.93;;
15340;SDS011;7770;52.158;5.372;2022-10-28T02:57:40;27.57;;;18.53;;
15340;SDS011;7770;52.158;5.372;2022-10-28T03:00:29;24.40;;;18.63;;
15340;SDS011;7770;52.158;5.372;2022-10-28T03:03:15;27.30;;;19.33;;
15340;SDS011;7770;52.158;5.372;2022-10-28T03:06:01;25.67;;;18.30;;
15340;SDS011;7770;52.158;5.372;2022-10-28T03:08:47;23.60;;;18.13;;
15340;SDS011;7770;52.158;5.372;2022-10-28T03:11:33;20.27;;;16.90;;
15340;SDS011;7770;52.158;5.372;2022-10-28T03:14:19;22.37;;;18.10;;
15340;SDS011;7770;52.158;5.372;2022-10-28T03:17:05;23.60;;;18.90;;
15340;SDS011;7770;52.158;5.372;2022-10-28T03:19:52;19.67;;;17.20;;
15340;SDS011;7770;52.158;5.372;2022-10-28T03:22:38;22.80;;;17.67;;
15340;SDS011;7770;52.158;5.372;2022-10-28T03:25:24;22.47;;;17.50;;
15340;SDS011;7770;52.158;5.372;2022-10-28T03:28:09;24.00;;;16.63;;
15340;SDS011;7770;52.158;5.372;2022-10-28T03:30:55;22.73;;;15.80;;
15340;SDS011;7770;52.158;5.372;2022-10-28T03:33:41;25.53;;;15.80;;
15340;SDS011;7770;52.158;5.372;2022-10-28T03:36:27;20.13;;;15.77;;
15340;SDS011;7770;52.158;5.372;2022-10-28T03:39:13;21.30;;;15.07;;
15340;SDS011;7770;52.158;5.372;2022-10-28T03:41:59;23.10;;;15.60;;
15340;SDS011;7770;52.158;5.372;2022-10-28T03:44:45;23.60;;;15.80;;
15340;SDS011;7770;52.158;5.372;2022-10-28T03:47:32;21.20;;;15.70;;
15340;SDS011;7770;52.158;5.372;2022-10-28T03:50:20;23.57;;;15.47;;
15340;SDS011;7770;52.158;5.372;2022-10-28T03:53:06;20.77;;;14.90;;
15340;SDS011;7770;52.158;5.372;2022-10-28T03:55:55;21.23;;;14.93;;
15340;SDS011;7770;52.158;5.372;2022-10-28T03:58:46;23.83;;;15.60;;
15340;SDS011;7770;52.158;5.372;2022-10-28T04:01:32;22.40;;;15.40;;
15340;SDS011;7770;52.158;5.372;2022-10-28T04:04:18;19.23;;;14.77;;
15340;SDS011;7770;52.158;5.372;2022-10-28T04:07:04;22.33;;;14.97;;
15340;SDS011;7770;52.158;5.372;2022-10-28T04:09:50;19.87;;;14.37;;
15340;SDS011;7770;52.158;5.372;2022-10-28T04:12:36;22.57;;;15.03;;
15340;SDS011;7770;52.158;5.372;2022-10-28T04:15:22;24.83;;;15.03;;
15340;SDS011;7770;52.158;5.372;2022-10-28T04:18:08;23.00;;;14.80;;
15340;SDS011;7770;52.158;5.372;2022-10-28T04:20:55;18.80;;;14.60;;
15340;SDS011;7770;52.158;5.372;2022-10-28T04:23:41;22.80;;;14.60;;
15340;SDS011;7770;52.158;5.372;2022-10-28T04:26:27;21.80;;;13.83;;
15340;SDS011;7770;52.158;5.372;2022-10-28T04:29:14;20.00;;;14.63;;
15340;SDS011;7770;52.158;5.372;2022-10-28T04:32:01;21.37;;;15.23;;
15340;SDS011;7770;52.158;5.372;2022-10-28T04:34:47;23.63;;;15.03;;
15340;SDS011;7770;52.158;5.372;2022-10-28T04:37:33;20.67;;;14.53;;
15340;SDS011;7770;52.158;5.372;2022-10-28T04:40:19;23.03;;;14.77;;
15340;SDS011;7770;52.158;5.372;2022-10-28T04:43:05;22.73;;;14.30;;
15340;SDS011;7770;52.158;5.372;2022-10-28T04:45:52;27.07;;;14.70;;
15340;SDS011;7770;52.158;5.372;2022-10-28T04:48:38;19.03;;;13.27;;
15340;SDS011;7770;52.158;5.372;2022-10-28T04:51:24;24.43;;;14.07;;
15340;SDS011;7770;52.158;5.372;2022-10-28T04:54:10;17.60;;;13.63;;
15340;SDS011;7770;52.158;5.372;2022-10-28T04:56:56;18.33;;;13.30;;
15340;SDS011;7770;52.158;5.372;2022-10-28T04:59:42;19.30;;;13.33;;
15340;SDS011;7770;52.158;5.372;2022-10-28T05:02:28;23.40;;;14.07;;
15340;SDS011;7770;52.158;5.372;2022-10-28T05:05:14;19.07;;;13.60;;
15340;SDS011;7770;52.158;5.372;2022-10-28T05:08:00;21.87;;;13.40;;
15340;SDS011;7770;52.158;5.372;2022-10-28T05:10:46;20.87;;;13.83;;
15340;SDS011;7770;52.158;5.372;2022-10-28T05:13:35;18.07;;;12.70;;
15340;SDS011;7770;52.158;5.372;2022-10-28T05:16:21;19.43;;;12.83;;
15340;SDS011;7770;52.158;5.372;2022-10-28T05:19:07;21.13;;;12.87;;
15340;SDS011;7770;52.158;5.372;2022-10-28T05:21:53;23.23;;;13.40;;
15340;SDS011;7770;52.158;5.372;2022-10-28T05:24:39;21.67;;;13.33;;
15340;SDS011;7770;52.158;5.372;2022-10-28T05:27:25;20.10;;;13.13;;
15340;SDS011;7770;52.158;5.372;2022-10-28T05:30:11;21.50;;;12.90;;
15340;SDS011;7770;52.158;5.372;2022-10-28T05:33:02;18.23;;;13.37;;
15340;SDS011;7770;52.158;5.372;2022-10-28T05:35:48;17.97;;;12.63;;
15340;SDS011;7770;52.158;5.372;2022-10-28T05:38:35;20.07;;;12.70;;
15340;SDS011;7770;52.158;5.372;2022-10-28T05:41:21;20.67;;;12.53;;
15340;SDS011;7770;52.158;5.372;2022-10-28T05:44:07;21.50;;;12.73;;
15340;SDS011;7770;52.158;5.372;2022-10-28T05:46:53;20.53;;;13.40;;
15340;SDS011;7770;52.158;5.372;2022-10-28T05:49:39;21.27;;;12.80;;
15340;SDS011;7770;52.158;5.372;2022-10-28T05:52:25;19.53;;;12.90;;
15340;SDS011;7770;52.158;5.372;2022-10-28T05:55:11;25.07;;;13.03;;
15340;SDS011;7770;52.158;5.372;2022-10-28T05:57:57;19.00;;;12.40;;
15340;SDS011;7770;52.158;5.372;2022-10-28T06:00:43;19.03;;;11.87;;
15340;SDS011;7770;52.158;5.372;2022-10-28T06:03:29;20.33;;;12.63;;
15340;SDS011;7770;52.158;5.372;2022-10-28T06:06:15;18.17;;;12.60;;
15340;SDS011;7770;52.158;5.372;2022-10-28T06:09:01;21.67;;;12.93;;
15340;SDS011;7770;52.158;5.372;2022-10-28T06:11:48;18.70;;;12.03;;
15340;SDS011;7770;52.158;5.372;2022-10-28T06:14:34;18.70;;;12.03;;
15340;SDS011;7770;52.158;5.372;2022-10-28T06:17:20;26.83;;;12.97;;
15340;SDS011;7770;52.158;5.372;2022-10-28T06:20:06;20.30;;;12.60;;
15340;SDS011;7770;52.158;5.372;2022-10-28T06:22:53;20.83;;;12.17;;
15340;SDS011;7770;52.158;5.372;2022-10-28T06:25:40;22.87;;;12.77;;
15340;SDS011;7770;52.158;5.372;2022-10-28T06:28:26;23.03;;;12.30;;
15340;SDS011;7770;52.158;5.372;2022-10-28T06:31:13;21.17;;;12.53;;
15340;SDS011;7770;52.158;5.372;2022-10-28T06:33:59;18.53;;;11.90;;
15340;SDS011;7770;52.158;5.372;2022-10-28T06:36:45;20.13;;;12.43;;
15340;SDS011;7770;52.158;5.372;2022-10-28T06:39:31;19.57;;;12.50;;
15340;SDS011;7770;52.158;5.372;2022-10-28T06:42:18;19.53;;;11.80;;
15340;SDS011;7770;52.158;5.372;2022-10-28T06:45:05;16.93;;;12.30;;
15340;SDS011;7770;52.158;5.372;2022-10-28T06:48:09;18.47;;;12.37;;
15340;SDS011;7770;52.158;5.372;2022-10-28T06:50:56;20.50;;;11.77;;
15340;SDS011;7770;52.158;5.372;2022-10-28T06:53:42;18.37;;;11.83;;
15340;SDS011;7770;52.158;5.372;2022-10-28T06:56:28;19.50;;;12.30;;
15340;SDS011;7770;52.158;5.372;2022-10-28T06:59:14;19.90;;;12.00;;
15340;SDS011;7770;52.158;5.372;2022-10-28T07:02:00;21.33;;;11.40;;
15340;SDS011;7770;52.158;5.372;2022-10-28T07:04:46;19.73;;;11.70;;
15340;SDS011;7770;52.158;5.372;2022-10-28T07:07:32;21.33;;;12.13;;
15340;SDS011;7770;52.158;5.372;2022-10-28T07:10:21;17.83;;;11.97;;
15340;SDS011;7770;52.158;5.372;2022-10-28T07:13:07;19.63;;;11.97;;
15340;SDS011;7770;52.158;5.372;2022-10-28T07:15:54;18.87;;;11.23;;
15340;SDS011;7770;52.158;5.372;2022-10-28T07:18:43;19.77;;;11.90;;
15340;SDS011;7770;52.158;5.372;2022-10-28T07:21:29;16.80;;;11.53;;
15340;SDS011;7770;52.158;5.372;2022-10-28T07:24:14;18.17;;;11.37;;
15340;SDS011;7770;52.158;5.372;2022-10-28T07:27:01;18.53;;;11.60;;
15340;SDS011;7770;52.158;5.372;2022-10-28T07:29:47;18.63;;;11.37;;
15340;SDS011;7770;52.158;5.372;2022-10-28T07:32:32;15.57;;;11.67;;
15340;SDS011;7770;52.158;5.372;2022-10-28T07:35:18;17.53;;;11.57;;
15340;SDS011;7770;52.158;5.372;2022-10-28T07:38:05;20.37;;;11.57;;
15340;SDS011;7770;52.158;5.372;2022-10-28T07:40:51;18.23;;;11.13;;
15340;SDS011;7770;52.158;5.372;2022-10-28T07:43:37;18.20;;;10.50;;
15340;SDS011;7770;52.158;5.372;2022-10-28T07:46:24;20.93;;;10.80;;
15340;SDS011;7770;52.158;5.372;2022-10-28T07:49:10;17.60;;;10.90;;
15340;SDS011;7770;52.158;5.372;2022-10-28T07:51:56;13.83;;;10.37;;
15340;SDS011;7770;52.158;5.372;2022-10-28T07:54:42;16.27;;;10.13;;
15340;SDS011;7770;52.158;5.372;2022-10-28T07:57:28;14.73;;;9.50;;
15340;SDS011;7770;52.158;5.372;2022-10-28T08:00:14;18.77;;;9.30;;
15340;SDS011;7770;52.158;5.372;2022-10-28T08:03:01;17.67;;;8.93;;
15340;SDS011;7770;52.158;5.372;2022-10-28T08:05:47;19.07;;;8.70;;
15340;SDS011;7770;52.158;5.372;2022-10-28T08:08:34;14.63;;;8.43;;
15340;SDS011;7770;52.158;5.372;2022-10-28T08:11:20;16.43;;;8.97;;
15340;SDS011;7770;52.158;5.372;2022-10-28T08:14:08;17.83;;;9.10;;
15340;SDS011;7770;52.158;5.372;2022-10-28T08:16:54;17.93;;;9.20;;
15340;SDS011;7770;52.158;5.372;2022-10-28T08:19:40;19.80;;;9.67;;
15340;SDS011;7770;52.158;5.372;2022-10-28T08:22:26;19.70;;;8.80;;
15340;SDS011;7770;52.158;5.372;2022-10-28T08:25:12;19.13;;;9.17;;
15340;SDS011;7770;52.158;5.372;2022-10-28T08:27:58;16.13;;;8.93;;
15340;SDS011;7770;52.158;5.372;2022-10-28T08:30:44;17.53;;;8.73;;
15340;SDS011;7770;52.158;5.372;2022-10-28T08:33:30;18.03;;;8.67;;
15340;SDS011;7770;52.158;5.372;2022-10-28T08:36:17;15.67;;;7.83;;
15340;SDS011;7770;52.158;5.372;2022-10-28T08:39:03;14.83;;;7.47;;
15340;SDS011;7770;52.158;5.372;2022-10-28T08:41:51;17.47;;;8.63;;
15340;SDS011;7770;52.158;5.372;2022-10-28T08:48:43;18.43;;;9.20;;
15340;SDS011;7770;52.158;5.372;2022-10-28T08:54:30;18.67;;;9.77;;
15340;SDS011;7770;52.158;5.372;2022-10-28T08:57:19;22.30;;;9.00;;
15340;SDS011;7770;52.158;5.372;2022-10-28T09:00:18;15.37;;;9.23;;
15340;SDS011;7770;52.158;5.372;2022-10-28T09:06:02;17.27;;;8.50;;
15340;SDS011;7770;52.158;5.372;2022-10-28T09:08:51;17.40;;;8.47;;
15340;SDS011;7770;52.158;5.372;2022-10-28T09:17:56;17.50;;;7.90;;
15340;SDS011;7770;52.158;5.372;2022-10-28T09:21:03;20.17;;;8.07;;
15340;SDS011;7770;52.158;5.372;2022-10-28T09:23:58;19.67;;;8.63;;
15340;SDS011;7770;52.158;5.372;2022-10-28T09:30:05;15.23;;;8.67;;
15340;SDS011;7770;52.158;5.372;2022-10-28T09:33:20;14.43;;;8.30;;
15340;SDS011;7770;52.158;5.372;2022-10-28T09:43:28;14.90;;;8.20;;
15340;SDS011;7770;52.158;5.372;2022-10-28T09:46:22;21.10;;;8.17;;
15340;SDS011;7770;52.158;5.372;2022-10-28T09:49:14;15.23;;;8.97;;
15340;SDS011;7770;52.158;5.372;2022-10-28T09:54:57;18.03;;;8.83;;
15340;SDS011;7770;52.158;5.372;2022-10-28T09:57:53;13.40;;;7.90;;
15340;SDS011;7770;52.158;5.372;2022-10-28T10:00:39;16.80;;;8.07;;
15340;SDS011;7770;52.158;5.372;2022-10-28T10:03:25;15.93;;;8.10;;
15340;SDS011;7770;52.158;5.372;2022-10-28T10:06:12;18.07;;;8.07;;
15340;SDS011;7770;52.158;5.372;2022-10-28T10:09:13;15.87;;;8.20;;
15340;SDS011;7770;52.158;5.372;2022-10-28T10:12:08;18.03;;;7.93;;
15340;SDS011;7770;52.158;5.372;2022-10-28T10:14:56;16.07;;;8.67;;
15340;SDS011;7770;52.158;5.372;2022-10-28T10:17:44;15.47;;;9.10;;
15340;SDS011;7770;52.158;5.372;2022-10-28T10:20:51;16.63;;;8.40;;
15340;SDS011;7770;52.158;5.372;2022-10-28T10:23:45;12.67;;;7.43;;
15340;SDS011;7770;52.158;5.372;2022-10-28T10:26:31;18.10;;;8.90;;
15340;SDS011;7770;52.158;5.372;2022-10-28T10:29:18;14.00;;;7.60;;
15340;SDS011;7770;52.158;5.372;2022-10-28T10:35:17;15.77;;;7.67;;
15340;SDS011;7770;52.158;5.372;2022-10-28T10:38:12;15.70;;;7.53;;
15340;SDS011;7770;52.158;5.372;2022-10-28T10:41:00;17.80;;;7.97;;
15340;SDS011;7770;52.158;5.372;2022-10-28T10:43:46;15.53;;;7.47;;
15340;SDS011;7770;52.158;5.372;2022-10-28T10:46:32;20.03;;;8.00;;
15340;SDS011;7770;52.158;5.372;2022-10-28T10:49:18;19.00;;;7.87;;
15340;SDS011;7770;52.158;5.372;2022-10-28T10:55:33;22.03;;;8.20;;
15340;SDS011;7770;52.158;5.372;2022-10-28T10:58:27;14.93;;;7.73;;
15340;SDS011;7770;52.158;5.372;2022-10-28T11:01:18;18.80;;;8.23;;
15340;SDS011;7770;52.158;5.372;2022-10-28T11:04:20;19.57;;;8.10;;
15340;SDS011;7770;52.158;5.372;2022-10-28T11:07:11;15.60;;;7.70;;
15340;SDS011;7770;52.158;5.372;2022-10-28T11:10:00;15.83;;;8.23;;
15340;SDS011;7770;52.158;5.372;2022-10-28T11:12:49;17.23;;;7.80;;
15340;SDS011;7770;52.158;5.372;2022-10-28T11:15:41;16.63;;;8.20;;
15340;SDS011;7770;52.158;5.372;2022-10-28T11:18:27;20.67;;;8.57;;
15340;SDS011;7770;52.158;5.372;2022-10-28T11:27:39;19.87;;;7.97;;
15340;SDS011;7770;52.158;5.372;2022-10-28T11:31:18;20.57;;;8.73;;
15340;SDS011;7770;52.158;5.372;2022-10-28T11:40:23;14.60;;;7.73;;
15340;SDS011;7770;52.158;5.372;2022-10-28T11:43:30;15.23;;;8.10;;
15340;SDS011;7770;52.158;5.372;2022-10-28T11:46:46;19.90;;;7.80;;
15340;SDS011;7770;52.158;5.372;2022-10-28T11:56:16;22.20;;;8.33;;
15340;SDS011;7770;52.158;5.372;2022-10-28T11:59:25;21.40;;;8.20;;
15340;SDS011;7770;52.158;5.372;2022-10-28T12:05:54;17.50;;;7.40;;
15340;SDS011;7770;52.158;5.372;2022-10-28T12:09:13;16.33;;;7.70;;
15340;SDS011;7770;52.158;5.372;2022-10-28T12:12:57;18.33;;;7.87;;
15340;SDS011;7770;52.158;5.372;2022-10-28T12:22:18;18.23;;;7.30;;
15340;SDS011;7770;52.158;5.372;2022-10-28T12:25:29;14.23;;;7.77;;
15340;SDS011;7770;52.158;5.372;2022-10-28T12:28:21;15.30;;;7.40;;
15340;SDS011;7770;52.158;5.372;2022-10-28T12:31:17;20.10;;;8.20;;
15340;SDS011;7770;52.158;5.372;2022-10-28T12:34:14;24.97;;;7.80;;
15340;SDS011;7770;52.158;5.372;2022-10-28T12:37:11;21.60;;;7.60;;
15340;SDS011;7770;52.158;5.372;2022-10-28T12:40:19;21.00;;;7.80;;
15340;SDS011;7770;52.158;5.372;2022-10-28T12:43:21;16.60;;;7.37;;
15340;SDS011;7770;52.158;5.372;2022-10-28T12:46:56;16.87;;;7.80;;
15340;SDS011;7770;52.158;5.372;2022-10-28T12:55:55;20.13;;;7.73;;
15340;SDS011;7770;52.158;5.372;2022-10-28T12:58:52;19.97;;;7.53;;
15340;SDS011;7770;52.158;5.372;2022-10-28T13:01:48;21.07;;;8.07;;
15340;SDS011;7770;52.158;5.372;2022-10-28T13:04:35;22.70;;;8.20;;
15340;SDS011;7770;52.158;5.372;2022-10-28T13:07:32;20.67;;;7.70;;
15340;SDS011;7770;52.158;5.372;2022-10-28T13:10:41;16.63;;;7.53;;
15340;SDS011;7770;52.158;5.372;2022-10-28T13:13:45;21.70;;;8.00;;
15340;SDS011;7770;52.158;5.372;2022-10-28T13:17:02;17.93;;;8.20;;
15340;SDS011;7770;52.158;5.372;2022-10-28T13:20:39;16.37;;;7.93;;
15340;SDS011;7770;52.158;5.372;2022-10-28T13:26:42;19.87;;;8.40;;
15340;SDS011;7770;52.158;5.372;2022-10-28T13:29:31;20.50;;;8.13;;
15340;SDS011;7770;52.158;5.372;2022-10-28T13:32:38;18.40;;;7.50;;
15340;SDS011;7770;52.158;5.372;2022-10-28T13:35:25;23.93;;;7.40;;
15340;SDS011;7770;52.158;5.372;2022-10-28T13:38:14;17.30;;;7.90;;
15340;SDS011;7770;52.158;5.372;2022-10-28T13:41:18;17.47;;;7.60;;
15340;SDS011;7770;52.158;5.372;2022-10-28T13:44:20;19.60;;;8.30;;
15340;SDS011;7770;52.158;5.372;2022-10-28T13:56:29;21.27;;;8.17;;
15340;SDS011;7770;52.158;5.372;2022-10-28T13:59:22;15.97;;;7.70;;
15340;SDS011;7770;52.158;5.372;2022-10-28T14:02:17;17.57;;;8.27;;
15340;SDS011;7770;52.158;5.372;2022-10-28T14:05:16;20.03;;;8.63;;
15340;SDS011;7770;52.158;5.372;2022-10-28T14:08:26;18.90;;;8.07;;
15340;SDS011;7770;52.158;5.372;2022-10-28T14:11:21;17.33;;;7.90;;
15340;SDS011;7770;52.158;5.372;2022-10-28T14:14:11;17.60;;;8.00;;
15340;SDS011;7770;52.158;5.372;2022-10-28T14:17:01;14.20;;;7.33;;
15340;SDS011;7770;52.158;5.372;2022-10-28T14:19:48;18.13;;;8.30;;
15340;SDS011;7770;52.158;5.372;2022-10-28T14:22:37;16.50;;;7.87;;
15340;SDS011;7770;52.158;5.372;2022-10-28T14:25:58;17.57;;;8.43;;
15340;SDS011;7770;52.158;5.372;2022-10-28T14:31:37;17.17;;;8.00;;
15340;SDS011;7770;52.158;5.372;2022-10-28T14:34:28;16.70;;;8.10;;
15340;SDS011;7770;52.158;5.372;2022-10-28T14:37:21;15.97;;;7.63;;
15340;SDS011;7770;52.158;5.372;2022-10-28T14:43:51;13.80;;;7.77;;
15340;SDS011;7770;52.158;5.372;2022-10-28T14:46:47;17.80;;;8.03;;
15340;SDS011;7770;52.158;5.372;2022-10-28T14:50:18;17.37;;;8.67;;
15340;SDS011;7770;52.158;5.372;2022-10-28T14:53:13;17.43;;;8.33;;
15340;SDS011;7770;52.158;5.372;2022-10-28T14:56:09;16.23;;;8.37;;
15340;SDS011;7770;52.158;5.372;2022-10-28T15:02:23;18.63;;;8.33;;
15340;SDS011;7770;52.158;5.372;2022-10-28T15:05:16;16.87;;;7.63;;
15340;SDS011;7770;52.158;5.372;2022-10-28T15:08:05;16.50;;;7.97;;
15340;SDS011;7770;52.158;5.372;2022-10-28T15:10:54;16.47;;;8.30;;
15340;SDS011;7770;52.158;5.372;2022-10-28T15:13:40;17.67;;;7.53;;
15340;SDS011;7770;52.158;5.372;2022-10-28T15:16:26;20.10;;;7.77;;
15340;SDS011;7770;52.158;5.372;2022-10-28T15:19:13;14.67;;;8.20;;
15340;SDS011;7770;52.158;5.372;2022-10-28T15:25:20;17.97;;;7.97;;
15340;SDS011;7770;52.158;5.372;2022-10-28T15:28:08;15.00;;;7.53;;
15340;SDS011;7770;52.158;5.372;2022-10-28T15:30:57;15.27;;;7.23;;
15340;SDS011;7770;52.158;5.372;2022-10-28T15:33:43;18.13;;;7.57;;
15340;SDS011;7770;52.158;5.372;2022-10-28T15:36:29;22.43;;;7.93;;
15340;SDS011;7770;52.158;5.372;2022-10-28T15:39:15;15.03;;;7.43;;
15340;SDS011;7770;52.158;5.372;2022-10-28T15:42:02;18.23;;;6.63;;
15340;SDS011;7770;52.158;5.372;2022-10-28T15:45:24;12.13;;;6.27;;
15340;SDS011;7770;52.158;5.372;2022-10-28T15:48:17;14.57;;;6.53;;
15340;SDS011;7770;52.158;5.372;2022-10-28T15:54:09;17.73;;;6.50;;
15340;SDS011;7770;52.158;5.372;2022-10-28T15:56:56;17.03;;;7.20;;
15340;SDS011;7770;52.158;5.372;2022-10-28T15:59:44;13.33;;;6.70;;
15340;SDS011;7770;52.158;5.372;2022-10-28T16:03:22;13.90;;;6.60;;
15340;SDS011;7770;52.158;5.372;2022-10-28T16:05:42;15.67;;;6.70;;
15340;SDS011;7770;52.158;5.372;2022-10-28T16:08:29;12.80;;;6.50;;
15340;SDS011;7770;52.158;5.372;2022-10-28T16:11:17;16.73;;;6.37;;
15340;SDS011;7770;52.158;5.372;2022-10-28T16:17:25;15.63;;;6.03;;
15340;SDS011;7770;52.158;5.372;2022-10-28T16:20:15;19.57;;;6.67;;
15340;SDS011;7770;52.158;5.372;2022-10-28T16:23:10;14.60;;;6.27;;
15340;SDS011;7770;52.158;5.372;2022-10-28T16:26:01;13.03;;;5.90;;
15340;SDS011;7770;52.158;5.372;2022-10-28T16:28:47;12.47;;;6.40;;
15340;SDS011;7770;52.158;5.372;2022-10-28T16:31:33;15.47;;;6.30;;
15340;SDS011;7770;52.158;5.372;2022-10-28T16:34:19;17.23;;;7.03;;
15340;SDS011;7770;52.158;5.372;2022-10-28T16:40:21;16.53;;;6.50;;
15340;SDS011;7770;52.158;5.372;2022-10-28T16:43:11;14.47;;;6.13;;
15340;SDS011;7770;52.158;5.372;2022-10-28T16:46:00;14.73;;;6.20;;
15340;SDS011;7770;52.158;5.372;2022-10-28T16:48:46;17.73;;;6.77;;
15340;SDS011;7770;52.158;5.372;2022-10-28T16:51:32;16.90;;;6.93;;
15340;SDS011;7770;52.158;5.372;2022-10-28T16:54:18;18.40;;;6.87;;
15340;SDS011;7770;52.158;5.372;2022-10-28T16:57:04;16.83;;;6.97;;
15340;SDS011;7770;52.158;5.372;2022-10-28T16:59:50;15.80;;;6.23;;
15340;SDS011;7770;52.158;5.372;2022-10-28T17:02:37;17.07;;;6.93;;
15340;SDS011;7770;52.158;5.372;2022-10-28T17:05:23;18.70;;;7.07;;
15340;SDS011;7770;52.158;5.372;2022-10-28T17:08:10;14.90;;;6.83;;
15340;SDS011;7770;52.158;5.372;2022-10-28T17:10:56;15.87;;;6.93;;
15340;SDS011;7770;52.158;5.372;2022-10-28T17:13:42;15.40;;;7.43;;
15340;SDS011;7770;52.158;5.372;2022-10-28T17:16:28;16.20;;;7.37;;
15340;SDS011;7770;52.158;5.372;2022-10-28T17:19:14;17.47;;;8.73;;
15340;SDS011;7770;52.158;5.372;2022-10-28T17:22:00;17.03;;;7.43;;
15340;SDS011;7770;52.158;5.372;2022-10-28T17:24:46;16.83;;;7.43;;
15340;SDS011;7770;52.158;5.372;2022-10-28T17:27:32;21.83;;;8.50;;
15340;SDS011;7770;52.158;5.372;2022-10-28T17:30:18;18.20;;;8.57;;
15340;SDS011;7770;52.158;5.372;2022-10-28T17:33:05;18.33;;;8.30;;
15340;SDS011;7770;52.158;5.372;2022-10-28T17:35:51;19.40;;;8.20;;
15340;SDS011;7770;52.158;5.372;2022-10-28T17:38:37;20.63;;;8.30;;
15340;SDS011;7770;52.158;5.372;2022-10-28T17:41:23;21.37;;;9.07;;
15340;SDS011;7770;52.158;5.372;2022-10-28T17:44:09;21.60;;;9.73;;
15340;SDS011;7770;52.158;5.372;2022-10-28T17:46:55;24.43;;;9.03;;
15340;SDS011;7770;52.158;5.372;2022-10-28T17:49:41;16.53;;;8.40;;
15340;SDS011;7770;52.158;5.372;2022-10-28T17:52:27;21.80;;;9.57;;
15340;SDS011;7770;52.158;5.372;2022-10-28T17:55:13;21.07;;;8.53;;
15340;SDS011;7770;52.158;5.372;2022-10-28T17:57:59;18.53;;;8.20;;
15340;SDS011;7770;52.158;5.372;2022-10-28T18:00:45;18.17;;;9.17;;
15340;SDS011;7770;52.158;5.372;2022-10-28T18:03:31;20.97;;;8.97;;
15340;SDS011;7770;52.158;5.372;2022-10-28T18:06:23;23.63;;;10.10;;
15340;SDS011;7770;52.158;5.372;2022-10-28T18:09:10;19.27;;;8.77;;
15340;SDS011;7770;52.158;5.372;2022-10-28T18:12:00;20.77;;;9.60;;
15340;SDS011;7770;52.158;5.372;2022-10-28T18:14:46;19.97;;;9.33;;
15340;SDS011;7770;52.158;5.372;2022-10-28T18:17:32;23.83;;;9.67;;
15340;SDS011;7770;52.158;5.372;2022-10-28T18:20:18;22.27;;;9.43;;
15340;SDS011;7770;52.158;5.372;2022-10-28T18:23:04;18.63;;;9.07;;
15340;SDS011;7770;52.158;5.372;2022-10-28T18:25:59;26.30;;;9.37;;
15340;SDS011;7770;52.158;5.372;2022-10-28T18:28:48;26.30;;;9.27;;
15340;SDS011;7770;52.158;5.372;2022-10-28T18:31:35;21.10;;;9.97;;
15340;SDS011;7770;52.158;5.372;2022-10-28T18:34:22;20.40;;;9.73;;
15340;SDS011;7770;52.158;5.372;2022-10-28T18:37:08;17.13;;;9.43;;
15340;SDS011;7770;52.158;5.372;2022-10-28T18:39:56;19.60;;;9.57;;
15340;SDS011;7770;52.158;5.372;2022-10-28T18:42:42;23.27;;;9.37;;
15340;SDS011;7770;52.158;5.372;2022-10-28T18:45:27;20.50;;;9.50;;
15340;SDS011;7770;52.158;5.372;2022-10-28T18:48:13;20.50;;;10.73;;
15340;SDS011;7770;52.158;5.372;2022-10-28T18:51:00;22.50;;;9.37;;
15340;SDS011;7770;52.158;5.372;2022-10-28T18:53:53;19.90;;;8.47;;
15340;SDS011;7770;52.158;5.372;2022-10-28T18:56:40;17.97;;;8.97;;
15340;SDS011;7770;52.158;5.372;2022-10-28T18:59:26;20.23;;;7.63;;
15340;SDS011;7770;52.158;5.372;2022-10-28T19:02:12;19.20;;;7.80;;
15340;SDS011;7770;52.158;5.372;2022-10-28T19:04:58;20.73;;;7.70;;
15340;SDS011;7770;52.158;5.372;2022-10-28T19:07:44;14.13;;;7.20;;
15340;SDS011;7770;52.158;5.372;2022-10-28T19:10:30;16.97;;;7.50;;
15340;SDS011;7770;52.158;5.372;2022-10-28T19:13:16;15.60;;;6.57;;
15340;SDS011;7770;52.158;5.372;2022-10-28T19:16:02;20.47;;;6.53;;